DRK540 VQPR-VEGT
Flight info
| Callsign | DRK540 |
|---|---|
| Flight time | 0h 36m |
| Altitude | 23000 |
| Route | PRO DCT TAKTI DCT SUBSU DCT OPIMO OPIMO1A |
| Aircraft | A319/M-SDE3FGHIRWY/LB1 |
Departure
| Time | 2026-05-08 12:39 |
|---|---|
| Airport | Paro International Airport (VQPR) |
Arrival
| Time | 2026-05-08 13:15 |
|---|---|
| Airport | Lokpriya Gopinath Bordoloi International Airport (VEGT) |
| Time | Latitude | Longitude | Altitude | Speed | Heading |
|---|---|---|---|---|---|
| 2026-05-08 12:39 | 27.36359 | 89.42783 | 15267 ft | 267 kts | 134° |
| 2026-05-08 12:39 | 27.35097 | 89.44330 | 15959 ft | 271 kts | 134° |
| 2026-05-08 12:39 | 27.33813 | 89.45903 | 16663 ft | 274 kts | 134° |
| 2026-05-08 12:39 | 27.32511 | 89.47493 | 17346 ft | 278 kts | 136° |
| 2026-05-08 12:40 | 27.31083 | 89.48962 | 18048 ft | 279 kts | 145° |
| 2026-05-08 12:40 | 27.29463 | 89.50173 | 18655 ft | 284 kts | 154° |
| 2026-05-08 12:40 | 27.27663 | 89.51097 | 19173 ft | 287 kts | 164° |
| 2026-05-08 12:40 | 27.25727 | 89.51717 | 19696 ft | 292 kts | 170° |
| 2026-05-08 12:41 | 27.23741 | 89.52260 | 20316 ft | 295 kts | 169° |
| 2026-05-08 12:41 | 27.21741 | 89.52813 | 20953 ft | 298 kts | 170° |
| 2026-05-08 12:41 | 27.19734 | 89.53371 | 21590 ft | 303 kts | 170° |
| 2026-05-08 12:41 | 27.17679 | 89.53943 | 22234 ft | 306 kts | 170° |
| 2026-05-08 12:42 | 27.15575 | 89.54527 | 22594 ft | 319 kts | 171° |
| 2026-05-08 12:42 | 27.13367 | 89.55135 | 22855 ft | 336 kts | 171° |
| 2026-05-08 12:42 | 27.11041 | 89.55776 | 23011 ft | 349 kts | 171° |
| 2026-05-08 12:42 | 27.08671 | 89.56437 | 23045 ft | 353 kts | 171° |
| 2026-05-08 12:43 | 27.06275 | 89.57110 | 23035 ft | 355 kts | 171° |
| 2026-05-08 12:43 | 27.03880 | 89.57784 | 23035 ft | 355 kts | 171° |
| 2026-05-08 12:43 | 27.01484 | 89.58456 | 23035 ft | 355 kts | 171° |
| 2026-05-08 12:43 | 26.99086 | 89.59124 | 23034 ft | 355 kts | 171° |
| 2026-05-08 12:44 | 26.96692 | 89.59791 | 22990 ft | 354 kts | 171° |
| 2026-05-08 12:44 | 26.94326 | 89.60445 | 22992 ft | 354 kts | 171° |
| 2026-05-08 12:44 | 26.91932 | 89.61105 | 22991 ft | 354 kts | 171° |
| 2026-05-08 12:44 | 26.89537 | 89.61767 | 22992 ft | 355 kts | 171° |
| 2026-05-08 12:45 | 26.87143 | 89.62431 | 22991 ft | 354 kts | 171° |
| 2026-05-08 12:45 | 26.84747 | 89.63093 | 22934 ft | 355 kts | 171° |
| 2026-05-08 12:45 | 26.82347 | 89.63756 | 22931 ft | 355 kts | 171° |
| 2026-05-08 12:45 | 26.79946 | 89.64419 | 22931 ft | 356 kts | 171° |
| 2026-05-08 12:46 | 26.77543 | 89.65083 | 22935 ft | 356 kts | 171° |
| 2026-05-08 12:46 | 26.75140 | 89.65747 | 22936 ft | 356 kts | 171° |
| 2026-05-08 12:46 | 26.72732 | 89.66412 | 22901 ft | 357 kts | 171° |
| 2026-05-08 12:46 | 26.70322 | 89.67077 | 22903 ft | 356 kts | 171° |
| 2026-05-08 12:47 | 26.67919 | 89.67744 | 22899 ft | 356 kts | 171° |
| 2026-05-08 12:47 | 26.65507 | 89.68414 | 22900 ft | 356 kts | 171° |
| 2026-05-08 12:47 | 26.63100 | 89.69078 | 23553 ft | 358 kts | 168° |
| 2026-05-08 12:47 | 26.60650 | 89.69751 | 22845 ft | 359 kts | 171° |
| 2026-05-08 12:48 | 26.58223 | 89.70420 | 22884 ft | 358 kts | 171° |
| 2026-05-08 12:48 | 26.55841 | 89.71077 | 22864 ft | 357 kts | 171° |
| 2026-05-08 12:48 | 26.53417 | 89.71744 | 22881 ft | 360 kts | 172° |
| 2026-05-08 12:48 | 26.50979 | 89.72413 | 22887 ft | 361 kts | 172° |
| 2026-05-08 12:49 | 26.48537 | 89.73086 | 22870 ft | 362 kts | 172° |
| 2026-05-08 12:49 | 26.46092 | 89.73759 | 22874 ft | 362 kts | 172° |
| 2026-05-08 12:49 | 26.43652 | 89.74461 | 22873 ft | 364 kts | 167° |
| 2026-05-08 12:49 | 26.41340 | 89.75665 | 22875 ft | 373 kts | 152° |
| 2026-05-08 12:50 | 26.39330 | 89.77538 | 22860 ft | 380 kts | 136° |
| 2026-05-08 12:50 | 26.37800 | 89.79966 | 22860 ft | 387 kts | 120° |
| 2026-05-08 12:50 | 26.36863 | 89.82787 | 22857 ft | 391 kts | 107° |
| 2026-05-08 12:50 | 26.36164 | 89.85715 | 22856 ft | 391 kts | 107° |
| 2026-05-08 12:51 | 26.35461 | 89.88644 | 22859 ft | 391 kts | 107° |
| 2026-05-08 12:51 | 26.34040 | 89.94507 | 22857 ft | 392 kts | 107° |
| 2026-05-08 12:51 | 26.33330 | 89.97438 | 22852 ft | 391 kts | 107° |
| 2026-05-08 12:52 | 26.32624 | 90.00347 | 22474 ft | 388 kts | 107° |
| 2026-05-08 12:52 | 26.31235 | 90.06068 | 21762 ft | 381 kts | 108° |
| 2026-05-08 12:52 | 26.30543 | 90.08906 | 21398 ft | 378 kts | 108° |
| 2026-05-08 12:53 | 26.29856 | 90.11724 | 21033 ft | 375 kts | 108° |
| 2026-05-08 12:53 | 26.29176 | 90.14523 | 20677 ft | 373 kts | 108° |
| 2026-05-08 12:53 | 26.28501 | 90.17303 | 20333 ft | 370 kts | 108° |
| 2026-05-08 12:53 | 26.27830 | 90.20063 | 19991 ft | 368 kts | 108° |
| 2026-05-08 12:54 | 26.27161 | 90.22805 | 19659 ft | 365 kts | 108° |
| 2026-05-08 12:54 | 26.26493 | 90.25533 | 19331 ft | 363 kts | 108° |
| 2026-05-08 12:54 | 26.25829 | 90.28243 | 19001 ft | 361 kts | 108° |
| 2026-05-08 12:54 | 26.25168 | 90.30937 | 18637 ft | 361 kts | 108° |
| 2026-05-08 12:55 | 26.24508 | 90.33630 | 18292 ft | 360 kts | 108° |
| 2026-05-08 12:55 | 26.23857 | 90.36280 | 17952 ft | 359 kts | 108° |
| 2026-05-08 12:55 | 26.23200 | 90.38951 | 17612 ft | 356 kts | 108° |
| 2026-05-08 12:55 | 26.22550 | 90.41600 | 17317 ft | 353 kts | 108° |
| 2026-05-08 12:56 | 26.21905 | 90.44224 | 17013 ft | 350 kts | 108° |
| 2026-05-08 12:56 | 26.21263 | 90.46834 | 16700 ft | 347 kts | 108° |
| 2026-05-08 12:56 | 26.20625 | 90.49419 | 16398 ft | 345 kts | 108° |
| 2026-05-08 12:56 | 26.19989 | 90.51992 | 16104 ft | 343 kts | 108° |
| 2026-05-08 12:57 | 26.19358 | 90.54543 | 15812 ft | 341 kts | 108° |
| 2026-05-08 12:57 | 26.18732 | 90.57076 | 15528 ft | 338 kts | 107° |
| 2026-05-08 12:57 | 26.18112 | 90.59594 | 15241 ft | 336 kts | 107° |
| 2026-05-08 12:57 | 26.17494 | 90.62094 | 15002 ft | 335 kts | 107° |
| 2026-05-08 12:58 | 26.16878 | 90.64589 | 14767 ft | 333 kts | 107° |
| 2026-05-08 12:58 | 26.16262 | 90.67077 | 14424 ft | 334 kts | 107° |
| 2026-05-08 12:58 | 26.15642 | 90.69578 | 14033 ft | 336 kts | 107° |
| 2026-05-08 12:58 | 26.15025 | 90.72066 | 13639 ft | 330 kts | 107° |
| 2026-05-08 12:59 | 26.14430 | 90.74460 | 13383 ft | 324 kts | 107° |
| 2026-05-08 12:59 | 26.13831 | 90.76867 | 13226 ft | 322 kts | 107° |
| 2026-05-08 12:59 | 26.13233 | 90.79268 | 13102 ft | 321 kts | 107° |
| 2026-05-08 12:59 | 26.12637 | 90.81661 | 12964 ft | 321 kts | 107° |
| 2026-05-08 13:00 | 26.12044 | 90.84043 | 12848 ft | 319 kts | 107° |
| 2026-05-08 13:00 | 26.11416 | 90.86412 | 12737 ft | 317 kts | 112° |
| 2026-05-08 13:00 | 26.10452 | 90.88596 | 12413 ft | 314 kts | 121° |
| 2026-05-08 13:00 | 26.09399 | 90.90714 | 12099 ft | 312 kts | 121° |
| 2026-05-08 13:01 | 26.08361 | 90.92813 | 11611 ft | 308 kts | 121° |
| 2026-05-08 13:01 | 26.07333 | 90.94896 | 11137 ft | 305 kts | 121° |
| 2026-05-08 13:01 | 26.06323 | 90.96950 | 10668 ft | 301 kts | 120° |
| 2026-05-08 13:01 | 26.05661 | 90.98296 | 10356 ft | 298 kts | 120° |
| 2026-05-08 13:02 | 26.04673 | 91.00303 | 9961 ft | 291 kts | 120° |
| 2026-05-08 13:02 | 26.03721 | 91.02236 | 9714 ft | 278 kts | 120° |
| 2026-05-08 13:02 | 26.02813 | 91.04082 | 9455 ft | 266 kts | 120° |
| 2026-05-08 13:02 | 26.01947 | 91.05837 | 9193 ft | 254 kts | 120° |
| 2026-05-08 13:03 | 26.01112 | 91.07524 | 8940 ft | 244 kts | 120° |
| 2026-05-08 13:03 | 26.00308 | 91.09148 | 8719 ft | 235 kts | 120° |
| 2026-05-08 13:03 | 25.99549 | 91.10684 | 8486 ft | 224 kts | 120° |
| 2026-05-08 13:03 | 25.98799 | 91.12203 | 8229 ft | 219 kts | 120° |
| 2026-05-08 13:04 | 25.98083 | 91.13647 | 7994 ft | 214 kts | 120° |
| 2026-05-08 13:04 | 25.97368 | 91.15087 | 7743 ft | 211 kts | 120° |
| 2026-05-08 13:04 | 25.96662 | 91.16508 | 7499 ft | 209 kts | 120° |
| 2026-05-08 13:04 | 25.95963 | 91.17922 | 7258 ft | 208 kts | 120° |
| 2026-05-08 13:05 | 25.95266 | 91.19330 | 7023 ft | 208 kts | 120° |
| 2026-05-08 13:05 | 25.94573 | 91.20733 | 6791 ft | 207 kts | 120° |
| 2026-05-08 13:05 | 25.93882 | 91.22129 | 6553 ft | 205 kts | 120° |
| 2026-05-08 13:05 | 25.93196 | 91.23515 | 6325 ft | 204 kts | 120° |
| 2026-05-08 13:06 | 25.92513 | 91.24892 | 6103 ft | 203 kts | 120° |
| 2026-05-08 13:06 | 25.91832 | 91.26264 | 6024 ft | 203 kts | 120° |
| 2026-05-08 13:06 | 25.91148 | 91.27640 | 6028 ft | 203 kts | 120° |
| 2026-05-08 13:06 | 25.90472 | 91.28999 | 6029 ft | 203 kts | 120° |
| 2026-05-08 13:07 | 25.89895 | 91.30427 | 6028 ft | 204 kts | 105° |
| 2026-05-08 13:07 | 25.89758 | 91.31975 | 5800 ft | 202 kts | 90° |
| 2026-05-08 13:07 | 25.89762 | 91.33535 | 5408 ft | 202 kts | 90° |
| 2026-05-08 13:07 | 25.89767 | 91.35086 | 5056 ft | 201 kts | 90° |
| 2026-05-08 13:08 | 25.89770 | 91.36649 | 4772 ft | 201 kts | 90° |
| 2026-05-08 13:08 | 25.89773 | 91.38197 | 4534 ft | 200 kts | 89° |
| 2026-05-08 13:08 | 25.89775 | 91.39741 | 4288 ft | 200 kts | 89° |
| 2026-05-08 13:08 | 25.89776 | 91.41282 | 4051 ft | 199 kts | 89° |
| 2026-05-08 13:09 | 25.89777 | 91.42810 | 3843 ft | 197 kts | 89° |
| 2026-05-08 13:09 | 25.89776 | 91.44332 | 3639 ft | 196 kts | 91° |
| 2026-05-08 13:09 | 25.89515 | 91.45782 | 3548 ft | 188 kts | 109° |
| 2026-05-08 13:09 | 25.89331 | 91.47188 | 3539 ft | 185 kts | 83° |
| 2026-05-08 13:10 | 25.89809 | 91.48494 | 3538 ft | 185 kts | 52° |
| 2026-05-08 13:10 | 25.90809 | 91.49340 | 3539 ft | 185 kts | 24° |
| 2026-05-08 13:10 | 25.91997 | 91.49887 | 3538 ft | 182 kts | 22° |
| 2026-05-08 13:10 | 25.93109 | 91.50398 | 3538 ft | 161 kts | 22° |
| 2026-05-08 13:11 | 25.94092 | 91.50851 | 3519 ft | 148 kts | 22° |
| 2026-05-08 13:11 | 25.95029 | 91.51284 | 3312 ft | 144 kts | 21° |
| 2026-05-08 13:11 | 25.95943 | 91.51707 | 3151 ft | 141 kts | 21° |
| 2026-05-08 13:11 | 25.96848 | 91.52125 | 2970 ft | 140 kts | 21° |
| 2026-05-08 13:12 | 25.97749 | 91.52542 | 2775 ft | 140 kts | 21° |
| 2026-05-08 13:12 | 25.98646 | 91.52957 | 2609 ft | 140 kts | 21° |
| 2026-05-08 13:12 | 25.99543 | 91.53372 | 2410 ft | 139 kts | 21° |
| 2026-05-08 13:12 | 26.00439 | 91.53786 | 2191 ft | 139 kts | 21° |
| 2026-05-08 13:13 | 26.01319 | 91.54194 | 1998 ft | 139 kts | 21° |
| 2026-05-08 13:13 | 26.02208 | 91.54605 | 1789 ft | 138 kts | 21° |
| 2026-05-08 13:13 | 26.03093 | 91.55015 | 1612 ft | 137 kts | 21° |
| 2026-05-08 13:13 | 26.03973 | 91.55423 | 1417 ft | 137 kts | 22° |
| 2026-05-08 13:14 | 26.04853 | 91.55830 | 1241 ft | 137 kts | 23° |
| 2026-05-08 13:14 | 26.05730 | 91.56236 | 1050 ft | 136 kts | 24° |
| 2026-05-08 13:14 | 26.06602 | 91.56640 | 861 ft | 135 kts | 24° |
| 2026-05-08 13:14 | 26.07467 | 91.57041 | 667 ft | 134 kts | 24° |
| 2026-05-08 13:15 | 26.08329 | 91.57437 | 468 ft | 134 kts | 23° |
| 2026-05-08 13:15 | 26.09190 | 91.57833 | 275 ft | 133 kts | 23° |
| 2026-05-08 13:15 | 26.10021 | 91.58228 | 168 ft | 119 kts | 23° |
| 2026-05-08 13:15 | 26.10530 | 91.58461 | 168 ft | 42 kts | 22° |
| 2026-05-08 13:16 | 26.10657 | 91.58518 | 169 ft | 16 kts | 22° |
| 2026-05-08 13:16 | 26.10740 | 91.58555 | 168 ft | 7 kts | 27° |
| 2026-05-08 13:16 | 26.10741 | 91.58609 | 169 ft | 8 kts | 111° |
| 2026-05-08 13:16 | 26.10714 | 91.58679 | 168 ft | 11 kts | 113° |
| 2026-05-08 13:17 | 26.10674 | 91.58722 | 167 ft | 8 kts | 144° |
| 2026-05-08 13:17 | 26.10658 | 91.58779 | 167 ft | 9 kts | 110° |
| 2026-05-08 13:17 | 26.10651 | 91.58798 | 167 ft | 0 kts | 110° |